createdAt,value
2022-09-22T00:01:24.000Z,6.00
2022-09-22T00:03:53.875Z,5.80
2022-09-22T00:06:32.728Z,5.55
2022-09-22T00:09:00.951Z,6.13
2022-09-22T00:13:59.844Z,5.80
2022-09-22T00:16:37.298Z,6.25
2022-09-22T00:19:08.951Z,5.82
2022-09-22T00:21:36.549Z,5.97
2022-09-22T00:24:04.825Z,6.03
2022-09-22T00:28:58.321Z,6.03
2022-09-22T00:31:26.489Z,6.38
2022-09-22T00:33:54.641Z,6.47
2022-09-22T00:36:23.843Z,5.90
2022-09-22T00:38:51.579Z,6.25
2022-09-22T00:41:28.467Z,6.55
2022-09-22T00:44:34.324Z,6.10
2022-09-22T00:47:19.142Z,6.00
2022-09-22T00:50:07.326Z,6.13
2022-09-22T00:53:05.946Z,6.53
2022-09-22T00:55:32.604Z,6.53
2022-09-22T00:58:02.217Z,6.20
2022-09-22T01:00:29.284Z,6.80
2022-09-22T01:02:59.189Z,6.38
2022-09-22T01:05:28.192Z,6.10
2022-09-22T01:07:55.279Z,6.93
2022-09-22T01:10:24.060Z,6.35
2022-09-22T01:13:13.766Z,6.00
2022-09-22T01:16:10.506Z,6.22
2022-09-22T01:18:49.342Z,6.00
2022-09-22T01:21:20.411Z,6.18
2022-09-22T01:24:05.617Z,5.90
2022-09-22T01:26:35.304Z,6.32
2022-09-22T01:29:20.598Z,6.60
2022-09-22T01:32:17.972Z,6.03
2022-09-22T01:35:16.684Z,6.10
2022-09-22T01:38:03.453Z,5.90
2022-09-22T01:40:30.229Z,6.47
2022-09-22T01:43:05.236Z,6.28
2022-09-22T01:45:33.456Z,6.75
2022-09-22T01:48:23.705Z,6.63
2022-09-22T01:50:58.626Z,6.47
2022-09-22T01:53:34.870Z,6.63
2022-09-22T01:56:07.936Z,6.70
2022-09-22T01:58:42.670Z,6.57
2022-09-22T02:01:14.905Z,6.47
2022-09-22T02:03:45.396Z,6.57
2022-09-22T02:06:36.906Z,7.20
2022-09-22T02:09:07.300Z,6.95
2022-09-22T02:11:34.247Z,6.78
2022-09-22T02:14:04.319Z,6.95
2022-09-22T02:16:31.841Z,6.50
2022-09-22T02:19:23.079Z,6.85
2022-09-22T02:21:50.377Z,6.28
2022-09-22T02:24:35.548Z,6.38
2022-09-22T02:27:25.657Z,6.20
2022-09-22T02:30:00.646Z,6.63
2022-09-22T02:32:29.560Z,6.50
2022-09-22T02:34:57.003Z,6.35
2022-09-22T02:37:39.909Z,6.30
2022-09-22T02:40:28.460Z,6.40
2022-09-22T02:43:18.839Z,6.43
2022-09-22T02:46:05.974Z,6.38
2022-09-22T02:48:46.459Z,6.10
2022-09-22T02:51:14.882Z,6.43
2022-09-22T02:53:41.678Z,6.18
2022-09-22T02:56:08.573Z,6.35
2022-09-22T02:58:35.350Z,6.40
2022-09-22T03:01:02.102Z,6.30
2022-09-22T03:03:28.911Z,6.25
2022-09-22T03:05:55.686Z,6.35
2022-09-22T03:08:22.475Z,6.55
2022-09-22T03:10:49.158Z,6.30
2022-09-22T03:13:17.418Z,6.40
2022-09-22T03:15:47.341Z,6.53
2022-09-22T03:18:14.649Z,6.10
2022-09-22T03:20:41.430Z,6.47
2022-09-22T03:23:08.303Z,6.10
2022-09-22T03:25:35.412Z,6.15
2022-09-22T03:28:02.515Z,5.82
2022-09-22T03:30:29.338Z,5.68
2022-09-22T03:32:56.325Z,6.57
2022-09-22T03:35:23.128Z,5.93
2022-09-22T03:37:52.154Z,5.80
2022-09-22T03:40:18.888Z,6.60
2022-09-22T03:42:45.634Z,5.65
2022-09-22T03:45:12.785Z,5.95
2022-09-22T03:47:39.730Z,6.47
2022-09-22T03:50:07.101Z,6.15
2022-09-22T03:52:34.766Z,6.20
2022-09-22T03:55:03.219Z,5.50
2022-09-22T03:57:30.270Z,5.53
2022-09-22T03:59:57.018Z,6.10
2022-09-22T04:02:23.848Z,5.40
2022-09-22T04:04:50.665Z,5.55
2022-09-22T04:07:17.400Z,5.55
2022-09-22T04:09:44.150Z,5.90
2022-09-22T04:12:10.823Z,5.50
2022-09-22T04:14:37.534Z,5.85
2022-09-22T04:17:05.221Z,5.50
2022-09-22T04:19:35.615Z,5.18
2022-09-22T04:22:03.500Z,5.45
2022-09-22T04:24:30.230Z,5.32
2022-09-22T04:27:18.531Z,5.90
2022-09-22T04:29:44.243Z,5.18
2022-09-22T04:32:10.987Z,5.85
2022-09-22T04:34:37.751Z,6.15
2022-09-22T04:37:05.154Z,5.78
2022-09-22T04:39:31.954Z,5.77
2022-09-22T04:41:58.666Z,6.18
2022-09-22T04:44:25.446Z,4.97
2022-09-22T04:46:52.175Z,5.53
2022-09-22T04:49:19.338Z,5.53
2022-09-22T04:51:46.228Z,5.68
2022-09-22T04:54:14.795Z,5.65
2022-09-22T04:56:43.068Z,5.65
2022-09-22T05:01:36.716Z,5.70
2022-09-22T05:04:04.428Z,5.85
2022-09-22T05:06:31.219Z,5.93
2022-09-22T05:08:58.574Z,5.75
2022-09-22T05:11:25.395Z,6.20
2022-09-22T05:13:52.094Z,5.80
2022-09-22T05:16:21.298Z,5.85
2022-09-22T05:18:50.203Z,6.00
2022-09-22T05:21:18.818Z,5.68
2022-09-22T05:23:46.930Z,6.15
2022-09-22T05:26:13.776Z,6.05
2022-09-22T05:28:40.879Z,5.82
2022-09-22T05:31:07.917Z,6.07
2022-09-22T05:33:37.210Z,5.38
2022-09-22T05:36:04.532Z,5.85
2022-09-22T05:38:31.231Z,5.85
2022-09-22T05:40:58.054Z,5.63
2022-09-22T05:43:24.784Z,5.82
2022-09-22T05:45:51.522Z,5.90
2022-09-22T05:48:18.293Z,5.88
2022-09-22T05:50:45.497Z,5.70
2022-09-22T05:53:13.471Z,5.75
2022-09-22T05:55:40.899Z,5.88
2022-09-22T05:58:11.703Z,6.15
2022-09-22T06:00:40.591Z,5.68
2022-09-22T06:03:08.016Z,6.10
2022-09-22T06:05:38.399Z,5.57
2022-09-22T06:08:06.625Z,5.93
2022-09-22T06:10:38.268Z,5.77
2022-09-22T06:13:11.868Z,6.13
2022-09-22T06:15:39.702Z,6.07
2022-09-22T06:18:13.071Z,6.10
2022-09-22T06:20:42.560Z,5.78
2022-09-22T06:23:09.297Z,6.23
2022-09-22T06:25:36.051Z,6.10
2022-09-22T06:28:07.814Z,6.20
2022-09-22T06:30:36.739Z,6.32
2022-09-22T06:33:04.201Z,6.05
2022-09-22T06:35:35.368Z,6.33
2022-09-22T06:38:02.678Z,6.28
2022-09-22T06:40:30.341Z,6.05
2022-09-22T06:42:59.064Z,6.85
2022-09-22T06:45:33.763Z,6.90
2022-09-22T06:48:01.159Z,4.90
2022-09-22T06:50:32.203Z,5.22
2022-09-22T06:53:04.140Z,5.90
2022-09-22T06:55:31.807Z,5.75
2022-09-22T06:57:59.659Z,6.20
2022-09-22T07:00:31.288Z,6.80
2022-09-22T07:03:22.636Z,7.13
2022-09-22T07:05:58.235Z,6.82
2022-09-22T07:08:27.828Z,7.13
2022-09-22T07:11:03.794Z,7.28
2022-09-22T07:13:32.267Z,7.55
2022-09-22T07:16:13.646Z,7.68
2022-09-22T07:18:42.307Z,8.43
2022-09-22T07:21:12.299Z,8.75
2022-09-22T07:23:40.812Z,9.13
2022-09-22T07:26:11.319Z,9.82
2022-09-22T07:28:38.077Z,9.88
2022-09-22T07:31:13.025Z,9.63
2022-09-22T07:33:42.270Z,9.57
2022-09-22T07:36:15.102Z,9.95
2022-09-22T07:38:43.320Z,10.38
2022-09-22T07:41:14.793Z,10.18
2022-09-22T07:43:42.499Z,10.73
2022-09-22T07:46:09.863Z,11.27
2022-09-22T07:48:37.820Z,10.33
2022-09-22T07:51:15.702Z,11.07
2022-09-22T07:53:43.428Z,10.75
2022-09-22T07:56:12.410Z,10.93
2022-09-22T07:58:50.640Z,10.90
2022-09-22T08:03:47.201Z,11.02
2022-09-22T08:06:16.107Z,11.10
2022-09-22T08:08:46.150Z,10.10
2022-09-22T08:11:15.608Z,10.68
2022-09-22T08:13:44.399Z,10.30
2022-09-22T08:16:11.600Z,10.18
2022-09-22T08:18:39.661Z,9.43
2022-09-22T08:21:09.258Z,9.90
2022-09-22T08:23:37.487Z,9.95
2022-09-22T08:26:08.557Z,9.18
2022-09-22T08:28:35.533Z,8.82
2022-09-22T08:31:03.039Z,9.38
2022-09-22T08:33:31.641Z,9.23
2022-09-22T08:36:03.601Z,9.82
2022-09-22T08:38:33.032Z,9.15
2022-09-22T08:41:24.463Z,9.65
2022-09-22T08:43:58.298Z,9.35
2022-09-22T08:46:40.411Z,8.93
2022-09-22T08:49:37.971Z,9.45
2022-09-22T08:52:25.466Z,8.98
2022-09-22T08:54:52.399Z,8.52
2022-09-22T08:57:22.071Z,8.63
2022-09-22T09:00:13.130Z,7.25
2022-09-22T09:02:42.493Z,7.40
2022-09-22T09:05:43.177Z,6.88
2022-09-22T09:08:34.737Z,7.63
2022-09-22T09:11:16.651Z,6.70
2022-09-22T09:14:28.132Z,6.93
2022-09-22T09:17:03.695Z,6.95
2022-09-22T09:19:42.591Z,6.63
2022-09-22T09:22:28.154Z,6.32
2022-09-22T09:25:22.412Z,5.75
2022-09-22T09:27:58.014Z,5.47
2022-09-22T09:30:32.103Z,5.00
2022-09-22T09:33:02.091Z,4.60
2022-09-22T09:35:41.228Z,4.10
2022-09-22T09:38:14.057Z,4.70
2022-09-22T09:40:41.589Z,4.60
2022-09-22T09:43:08.906Z,3.97
2022-09-22T09:45:57.306Z,4.07
2022-09-22T09:48:43.816Z,3.75
2022-09-22T09:51:14.268Z,4.20
2022-09-22T09:53:46.459Z,3.95
2022-09-22T09:56:26.399Z,3.90
2022-09-22T09:59:18.795Z,3.60
2022-09-22T10:01:50.938Z,3.42
2022-09-22T10:04:35.498Z,3.60
2022-09-22T10:07:16.711Z,3.35
2022-09-22T10:09:44.573Z,3.05
2022-09-22T10:12:24.303Z,3.20
2022-09-22T10:14:59.646Z,3.05
2022-09-22T10:17:42.942Z,2.92
2022-09-22T10:20:31.617Z,3.10
2022-09-22T10:23:22.521Z,2.80
2022-09-22T10:25:50.666Z,2.88
2022-09-22T10:28:19.618Z,2.70
2022-09-22T10:31:04.817Z,2.80
2022-09-22T10:33:33.382Z,2.50
2022-09-22T10:36:11.783Z,2.60
2022-09-22T10:38:43.588Z,2.30
2022-09-22T10:41:27.394Z,2.78
2022-09-22T10:44:35.095Z,2.50
2022-09-22T10:47:39.581Z,2.28
2022-09-22T10:50:49.047Z,2.15
2022-09-22T10:53:37.640Z,2.47
2022-09-22T10:57:12.065Z,2.33
2022-09-22T10:59:51.341Z,2.28
2022-09-22T11:02:41.426Z,2.35
2022-09-22T11:05:08.099Z,2.60
2022-09-22T11:08:21.135Z,2.40
2022-09-22T11:11:21.229Z,1.88
2022-09-22T11:14:08.862Z,2.60
2022-09-22T11:16:47.648Z,2.10
2022-09-22T11:19:26.382Z,1.80
2022-09-22T11:22:13.336Z,1.58
2022-09-22T11:24:55.696Z,1.50
2022-09-22T11:27:59.078Z,1.80
2022-09-22T11:30:26.139Z,2.00
2022-09-22T11:32:59.511Z,1.98
2022-09-22T11:35:29.069Z,1.50
2022-09-22T11:38:28.046Z,1.33
2022-09-22T11:41:18.047Z,1.45
2022-09-22T11:43:59.357Z,1.58
2022-09-22T11:46:47.663Z,1.50
2022-09-22T11:49:45.521Z,1.70
2022-09-22T11:55:01.009Z,1.60
2022-09-22T11:57:34.678Z,1.50
2022-09-22T12:00:18.881Z,1.30
2022-09-22T12:03:10.392Z,1.35
2022-09-22T12:05:45.156Z,1.48
2022-09-22T12:08:24.612Z,1.60
2022-09-22T12:10:52.754Z,1.30
2022-09-22T12:13:28.327Z,1.33
2022-09-22T12:15:55.099Z,1.83
2022-09-22T12:18:34.484Z,1.60
2022-09-22T12:21:30.891Z,1.50
2022-09-22T12:24:02.342Z,1.52
2022-09-22T12:26:33.307Z,1.80
2022-09-22T12:29:27.950Z,1.70
2022-09-22T12:31:57.109Z,1.30
2022-09-22T12:34:37.941Z,1.60
2022-09-22T12:37:29.610Z,1.80
2022-09-22T12:40:23.491Z,1.50
2022-09-22T12:42:52.564Z,1.40
2022-09-22T12:45:38.214Z,1.55
2022-09-22T12:48:25.255Z,1.35
2022-09-22T12:50:52.403Z,1.50
2022-09-22T12:53:22.195Z,1.52
2022-09-22T12:55:49.971Z,1.38
2022-09-22T12:58:23.521Z,1.50
2022-09-22T13:01:27.683Z,1.25
2022-09-22T13:04:11.869Z,1.58
2022-09-22T13:06:38.514Z,1.70
2022-09-22T13:09:05.329Z,1.38
2022-09-22T13:12:10.180Z,1.48
2022-09-22T13:14:57.298Z,1.60
2022-09-22T13:17:45.751Z,1.63
2022-09-22T13:20:21.707Z,1.70
2022-09-22T13:22:51.050Z,1.42
2022-09-22T13:25:21.827Z,1.50
2022-09-22T13:28:12.856Z,1.60
2022-09-22T13:30:42.027Z,1.30
2022-09-22T13:33:32.159Z,1.85
2022-09-22T13:36:06.476Z,1.33
2022-09-22T13:38:37.146Z,1.55
2022-09-22T13:41:09.449Z,1.60
2022-09-22T13:43:38.303Z,1.55
2022-09-22T13:46:06.352Z,1.60
2022-09-22T13:48:38.331Z,1.45
2022-09-22T13:51:09.385Z,1.40
2022-09-22T13:53:37.672Z,1.58
2022-09-22T13:58:39.525Z,1.58
2022-09-22T14:01:21.624Z,1.67
2022-09-22T14:03:50.637Z,1.50
2022-09-22T14:06:23.104Z,1.23
2022-09-22T14:08:51.515Z,1.60
2022-09-22T14:11:32.649Z,1.50
2022-09-22T14:14:02.614Z,1.70
2022-09-22T14:16:32.109Z,1.50
2022-09-22T14:19:13.798Z,1.55
2022-09-22T14:21:50.378Z,1.60
2022-09-22T14:24:17.702Z,1.40
2022-09-22T14:26:59.041Z,1.50
2022-09-22T14:29:39.050Z,1.85
2022-09-22T14:32:16.527Z,1.70
2022-09-22T14:34:49.028Z,1.45
2022-09-22T14:37:33.967Z,1.63
2022-09-22T14:40:04.709Z,1.30
2022-09-22T14:42:33.654Z,1.40
2022-09-22T14:45:09.709Z,1.20
2022-09-22T14:47:41.545Z,1.30
2022-09-22T14:50:21.114Z,1.23
2022-09-22T14:53:13.647Z,1.10
2022-09-22T14:55:47.431Z,1.45
2022-09-22T14:58:20.682Z,1.67
2022-09-22T15:01:17.749Z,1.50
2022-09-22T15:03:52.603Z,1.58
2022-09-22T15:06:19.391Z,1.30
2022-09-22T15:08:51.169Z,1.75
2022-09-22T15:11:18.978Z,1.58
2022-09-22T15:13:51.317Z,1.77
2022-09-22T15:16:43.469Z,1.80
2022-09-22T15:19:13.048Z,1.70
2022-09-22T15:21:46.231Z,1.80
2022-09-22T15:24:14.701Z,1.92
2022-09-22T15:26:44.218Z,1.92
2022-09-22T15:29:15.899Z,2.10
2022-09-22T15:31:42.645Z,1.92
2022-09-22T15:34:10.495Z,1.95
2022-09-22T15:36:44.148Z,2.20
2022-09-22T15:39:23.661Z,1.92
2022-09-22T15:41:51.920Z,1.92
2022-09-22T15:44:19.061Z,2.00
2022-09-22T15:46:50.263Z,2.00
2022-09-22T15:49:24.579Z,1.83
2022-09-22T15:51:51.649Z,2.30
2022-09-22T15:54:20.421Z,2.20
2022-09-22T15:56:51.204Z,2.33
2022-09-22T15:59:21.788Z,2.25
2022-09-22T16:01:49.509Z,2.10
2022-09-22T16:04:16.278Z,2.25
2022-09-22T16:06:48.557Z,1.98
2022-09-22T16:09:17.308Z,2.42
2022-09-22T16:11:44.072Z,2.10
2022-09-22T16:14:11.673Z,2.10
2022-09-22T16:16:38.566Z,2.10
2022-09-22T16:19:09.377Z,2.10
2022-09-22T16:21:38.539Z,2.00
2022-09-22T16:24:08.605Z,2.15
2022-09-22T16:26:37.367Z,1.95
2022-09-22T16:29:04.600Z,2.17
2022-09-22T16:31:35.346Z,1.75
2022-09-22T16:34:06.559Z,2.15
2022-09-22T16:36:35.163Z,2.15
2022-09-22T16:39:02.524Z,1.90
2022-09-22T16:41:34.204Z,2.30
2022-09-22T16:44:02.034Z,2.40
2022-09-22T16:46:31.307Z,2.08
2022-09-22T16:49:00.814Z,2.40
2022-09-22T16:51:28.934Z,2.17
2022-09-22T16:53:56.060Z,2.22
2022-09-22T16:56:28.256Z,2.38
2022-09-22T16:58:55.522Z,2.30
2022-09-22T17:01:23.195Z,2.40
2022-09-22T17:03:52.290Z,2.58
2022-09-22T17:06:24.448Z,2.15
2022-09-22T17:08:57.078Z,2.45
2022-09-22T17:11:33.911Z,2.20
2022-09-22T17:14:12.446Z,2.20
2022-09-22T17:16:41.707Z,2.22
2022-09-22T17:19:18.309Z,2.30
2022-09-22T17:21:49.354Z,2.35
2022-09-22T17:24:16.416Z,2.58
2022-09-22T17:26:49.270Z,2.78
2022-09-22T17:29:18.069Z,2.35
2022-09-22T17:31:48.041Z,2.33
2022-09-22T17:34:15.839Z,2.85
2022-09-22T17:36:42.939Z,3.60
2022-09-22T17:39:10.647Z,4.28
2022-09-22T17:41:45.259Z,6.65
2022-09-22T17:44:12.589Z,7.13
2022-09-22T17:47:02.056Z,5.33
2022-09-22T17:49:47.540Z,5.63
2022-09-22T17:52:28.460Z,5.80
2022-09-22T17:55:09.134Z,5.28
2022-09-22T17:57:42.069Z,5.88
2022-09-22T18:00:19.473Z,6.05
2022-09-22T18:02:46.796Z,6.13
2022-09-22T18:05:16.187Z,5.77
2022-09-22T18:07:43.485Z,6.03
2022-09-22T18:10:13.741Z,5.82
2022-09-22T18:12:41.830Z,5.53
2022-09-22T18:15:12.850Z,5.82
2022-09-22T18:17:42.010Z,6.43
2022-09-22T18:20:12.278Z,6.40
2022-09-22T18:22:40.033Z,6.30
2022-09-22T18:25:09.031Z,6.45
2022-09-22T18:27:36.285Z,6.57
2022-09-22T18:30:05.063Z,6.50
2022-09-22T18:32:32.987Z,6.57
2022-09-22T18:34:59.725Z,6.05
2022-09-22T18:37:26.911Z,6.57
2022-09-22T18:39:54.078Z,6.43
2022-09-22T18:42:24.257Z,5.90
2022-09-22T18:44:52.680Z,6.45
2022-09-22T18:49:51.382Z,7.20
2022-09-22T18:52:26.530Z,7.32
2022-09-22T18:54:54.752Z,6.55
2022-09-22T18:59:51.250Z,6.40
2022-09-22T19:04:51.939Z,6.97
2022-09-22T19:07:41.403Z,6.90
2022-09-22T19:10:14.426Z,6.63
2022-09-22T19:12:43.849Z,6.28
2022-09-22T19:15:13.599Z,6.90
2022-09-22T19:17:44.684Z,6.38
2022-09-22T19:20:17.225Z,6.72
2022-09-22T19:22:44.420Z,6.32
2022-09-22T19:25:12.048Z,6.75
2022-09-22T19:27:39.944Z,6.18
2022-09-22T19:30:11.338Z,6.90
2022-09-22T19:32:38.910Z,7.30
2022-09-22T19:35:07.860Z,7.53
2022-09-22T19:37:35.287Z,6.50
2022-09-22T19:40:02.310Z,6.20
2022-09-22T19:42:29.183Z,6.70
2022-09-22T19:44:56.149Z,6.97
2022-09-22T19:47:23.790Z,6.30
2022-09-22T19:49:50.693Z,6.93
2022-09-22T19:52:17.607Z,6.75
2022-09-22T19:54:44.448Z,6.68
2022-09-22T19:57:11.429Z,6.68
2022-09-22T19:59:38.212Z,6.80
2022-09-22T20:02:11.036Z,6.32
2022-09-22T20:04:40.770Z,6.43
2022-09-22T20:07:11.217Z,6.18
2022-09-22T20:09:38.275Z,6.80
2022-09-22T20:12:05.573Z,6.28
2022-09-22T20:14:32.425Z,6.38
2022-09-22T20:17:02.714Z,6.50
2022-09-22T20:19:31.933Z,6.40
2022-09-22T20:22:19.483Z,6.50
2022-09-22T20:24:57.359Z,6.65
2022-09-22T20:27:29.072Z,6.38
2022-09-22T20:29:57.545Z,6.18
2022-09-22T20:32:26.066Z,6.03
2022-09-22T20:37:21.390Z,6.60
2022-09-22T20:39:48.307Z,6.07
2022-09-22T20:42:15.854Z,6.35
2022-09-22T20:44:43.530Z,6.70
2022-09-22T20:47:14.744Z,6.40
2022-09-22T20:49:42.033Z,7.13
2022-09-22T20:52:16.381Z,6.35
2022-09-22T20:54:46.404Z,6.40
2022-09-22T20:57:14.062Z,6.50
2022-09-22T20:59:43.947Z,6.45
2022-09-22T21:02:12.345Z,6.43
2022-09-22T21:04:39.179Z,6.68
2022-09-22T21:07:06.081Z,6.72
2022-09-22T21:09:51.594Z,6.35
2022-09-22T21:12:18.489Z,6.72
2022-09-22T21:14:45.886Z,6.80
2022-09-22T21:17:13.425Z,6.50
2022-09-22T21:19:40.482Z,6.60
2022-09-22T21:22:07.260Z,6.18
2022-09-22T21:24:34.260Z,6.50
2022-09-22T21:27:01.087Z,6.40
2022-09-22T21:29:29.424Z,7.07
2022-09-22T21:31:57.783Z,6.50
2022-09-22T21:34:24.756Z,6.35
2022-09-22T21:36:51.502Z,6.35
2022-09-22T21:39:18.452Z,6.15
2022-09-22T21:41:45.474Z,6.28
2022-09-22T21:44:12.340Z,6.38
2022-09-22T21:46:41.825Z,6.40
2022-09-22T21:49:10.079Z,6.97
2022-09-22T21:51:42.140Z,6.05
2022-09-22T21:54:13.092Z,6.47
2022-09-22T21:56:40.028Z,6.55
2022-09-22T21:59:07.636Z,6.75
2022-09-22T22:01:37.100Z,6.05
2022-09-22T22:04:08.034Z,5.88
2022-09-22T22:06:40.015Z,6.20
2022-09-22T22:09:10.908Z,5.80
2022-09-22T22:11:40.266Z,5.80
2022-09-22T22:14:09.437Z,6.20
2022-09-22T22:16:38.727Z,5.95
2022-09-22T22:19:06.652Z,6.15
2022-09-22T22:21:33.792Z,6.18
2022-09-22T22:24:29.283Z,5.95
2022-09-22T22:26:57.484Z,6.10
2022-09-22T22:31:59.128Z,5.93
2022-09-22T22:34:26.139Z,5.32
2022-09-22T22:36:54.403Z,6.10
2022-09-22T22:41:51.347Z,5.20
2022-09-22T22:44:18.133Z,5.95
2022-09-22T22:46:45.839Z,5.68
2022-09-22T22:49:15.020Z,4.72
2022-09-22T22:51:43.340Z,6.05
2022-09-22T22:54:11.743Z,5.50
2022-09-22T22:59:10.337Z,5.57
2022-09-22T23:01:37.458Z,5.60
2022-09-22T23:04:06.733Z,5.73
2022-09-22T23:06:38.871Z,5.70
2022-09-22T23:09:07.837Z,5.65
2022-09-22T23:11:37.480Z,5.68
2022-09-22T23:14:09.182Z,4.93
2022-09-22T23:16:44.449Z,5.10
2022-09-22T23:19:16.943Z,5.55
2022-09-22T23:21:45.026Z,6.18
2022-09-22T23:24:16.002Z,5.70
2022-09-22T23:26:43.623Z,5.80
2022-09-22T23:29:10.763Z,5.28
2022-09-22T23:31:37.581Z,5.15
2022-09-22T23:34:04.346Z,5.55
2022-09-22T23:36:31.090Z,5.88
2022-09-22T23:39:03.291Z,5.57
2022-09-22T23:41:35.351Z,5.15
2022-09-22T23:44:03.109Z,5.65
2022-09-22T23:46:30.277Z,5.80
2022-09-22T23:48:57.437Z,5.63
2022-09-22T23:51:24.197Z,5.80
2022-09-22T23:53:51.740Z,5.68
2022-09-22T23:56:19.549Z,5.40
2022-09-22T23:58:46.506Z,5.65
